Time;durP1;ratioP1;P1;durP2;ratioP2;P2;SDS_P1;SDS_P2;PMS_P1;PMS_P2;Temp;Humidity;BMP_temperature;BMP_pressure;BME280_temperature;BME280_humidity;BME280_pressure;Samples;Min_cycle;Max_cycle;Signal;HPM_P1;HPM_P2
2023/10/26 00:01:25;;;;;;;22.63;18.65;;;12.00;99.90;;;;;;5072804;28;20021;-86
2023/10/26 00:03:51;;;;;;;21.90;19.23;;;11.10;99.90;;;;;;5071605;28;20108;-87
2023/10/26 00:06:16;;;;;;;22.85;19.08;;;11.10;99.90;;;;;;5056840;28;20029;-87
2023/10/26 00:08:42;;;;;;;23.65;19.30;;;11.10;99.90;;;;;;5056952;28;20025;-87
2023/10/26 00:11:08;;;;;;;23.52;19.13;;;11.10;99.90;;;;;;5052548;28;20037;-87
2023/10/26 00:13:34;;;;;;;22.40;19.98;;;11.10;99.90;;;;;;5059051;28;20666;-87
2023/10/26 00:16:00;;;;;;;26.30;19.75;;;11.10;99.90;;;;;;5072547;28;20112;-87
2023/10/26 00:18:25;;;;;;;24.63;19.75;;;11.10;99.90;;;;;;5067271;28;20061;-87
2023/10/26 00:20:58;;;;;;;23.95;20.25;;;11.00;99.90;;;;;;5072569;28;20097;-87
2023/10/26 00:23:24;;;;;;;26.73;20.23;;;11.20;99.90;;;;;;5064358;28;20476;-86
2023/10/26 00:25:49;;;;;;;27.95;21.30;;;11.10;99.90;;;;;;5068391;28;20075;-87
2023/10/26 00:28:15;;;;;;;24.45;18.85;;;11.10;99.90;;;;;;5062955;28;20476;-87
2023/10/26 00:30:40;;;;;;;31.52;20.85;;;11.00;99.90;;;;;;5067824;28;20131;-87
2023/10/26 00:33:06;;;;;;;22.98;19.52;;;10.90;99.90;;;;;;5067634;28;20013;-85
2023/10/26 00:35:31;;;;;;;30.20;19.20;;;10.90;99.90;;;;;;5072340;28;20477;-86
2023/10/26 00:37:57;;;;;;;20.35;17.92;;;10.90;99.90;;;;;;5069605;28;21120;-86
2023/10/26 00:40:23;;;;;;;22.85;18.48;;;10.90;99.90;;;;;;5063875;28;20483;-87
2023/10/26 00:42:49;;;;;;;23.55;18.67;;;10.90;99.90;;;;;;5068235;28;20024;-86
2023/10/26 00:45:14;;;;;;;24.42;18.02;;;10.90;99.90;;;;;;5071745;28;20024;-86
2023/10/26 00:47:40;;;;;;;25.65;19.60;;;10.90;99.90;;;;;;5067342;28;20381;-86
2023/10/26 00:50:07;;;;;;;20.50;17.95;;;10.90;99.90;;;;;;5069858;28;20494;-86
2023/10/26 00:52:35;;;;;;;27.75;18.80;;;10.90;99.90;;;;;;5069115;28;20020;-86
2023/10/26 00:55:03;;;;;;;21.00;18.52;;;10.90;99.90;;;;;;5055227;28;20025;-86
2023/10/26 00:57:30;;;;;;;24.63;19.83;;;10.80;99.90;;;;;;5059688;28;20468;-86
2023/10/26 00:59:57;;;;;;;21.75;18.38;;;10.80;99.90;;;;;;5072262;28;20024;-86
2023/10/26 01:02:24;;;;;;;28.08;19.27;;;10.70;99.90;;;;;;5056316;28;20511;-87
2023/10/26 01:04:50;;;;;;;29.10;19.52;;;10.90;99.90;;;;;;5059528;28;20085;-86
2023/10/26 01:07:16;;;;;;;25.60;19.05;;;10.90;99.90;;;;;;5071847;28;20115;-85
2023/10/26 01:09:42;;;;;;;23.83;19.60;;;10.80;99.90;;;;;;5070156;28;20028;-89
2023/10/26 01:12:08;;;;;;;28.25;19.52;;;10.80;99.90;;;;;;5063092;28;20139;-85
2023/10/26 01:14:34;;;;;;;22.95;18.67;;;10.80;99.90;;;;;;5051508;28;20112;-86
2023/10/26 01:17:00;;;;;;;22.08;18.23;;;10.70;99.90;;;;;;5066905;28;20035;-85
2023/10/26 01:19:43;;;;;;;26.75;20.30;;;10.80;99.90;;;;;;5065288;28;20025;-86
2023/10/26 01:22:10;;;;;;;24.13;18.58;;;10.80;99.90;;;;;;5071596;28;20021;-85
2023/10/26 01:24:36;;;;;;;24.58;18.70;;;10.80;99.90;;;;;;5053882;28;20033;-86
2023/10/26 01:27:02;;;;;;;24.85;18.33;;;10.80;99.90;;;;;;5059102;28;20024;-85
2023/10/26 01:29:27;;;;;;;24.52;18.48;;;10.80;99.90;;;;;;5061349;28;20048;-85
2023/10/26 01:31:53;;;;;;;24.48;18.50;;;10.80;99.90;;;;;;5062967;28;20037;-86
2023/10/26 01:34:18;;;;;;;19.80;17.63;;;10.80;99.90;;;;;;5052689;28;20025;-85
2023/10/26 01:36:44;;;;;;;22.05;17.35;;;10.80;99.90;;;;;;5053296;28;20036;-86
2023/10/26 01:39:11;;;;;;;24.38;18.50;;;10.90;99.90;;;;;;5051584;28;20025;-85
2023/10/26 01:41:37;;;;;;;20.15;17.35;;;10.80;99.90;;;;;;5060825;28;20112;-86
2023/10/26 01:44:03;;;;;;;19.45;17.35;;;10.80;99.90;;;;;;5057569;28;20108;-85
2023/10/26 01:46:28;;;;;;;20.13;17.85;;;10.90;99.90;;;;;;5058516;28;20041;-85
2023/10/26 01:48:54;;;;;;;18.63;16.73;;;10.90;99.90;;;;;;5051939;28;20048;-86
2023/10/26 01:51:20;;;;;;;21.00;17.60;;;10.90;99.90;;;;;;5054402;28;20037;-86
2023/10/26 01:53:45;;;;;;;18.45;16.48;;;10.90;99.90;;;;;;5051518;28;20033;-86
2023/10/26 01:56:11;;;;;;;19.67;16.58;;;10.90;99.90;;;;;;5053188;28;20033;-87
2023/10/26 01:58:36;;;;;;;18.33;16.42;;;11.00;99.90;;;;;;5055450;28;20032;-85
2023/10/26 02:01:02;;;;;;;17.73;15.82;;;10.90;99.90;;;;;;5066749;28;20087;-87
2023/10/26 02:03:27;;;;;;;18.60;16.13;;;10.90;99.90;;;;;;5055133;28;20083;-86
2023/10/26 02:05:53;;;;;;;17.95;16.05;;;10.90;99.90;;;;;;5064295;28;20020;-86
2023/10/26 02:08:18;;;;;;;20.67;16.98;;;10.90;99.90;;;;;;5071924;28;20483;-85
2023/10/26 02:10:44;;;;;;;18.90;16.67;;;10.90;99.90;;;;;;5059037;28;20032;-85
2023/10/26 02:13:10;;;;;;;18.10;16.20;;;10.90;99.90;;;;;;5071811;28;20020;-85
2023/10/26 02:15:36;;;;;;;17.90;16.10;;;10.80;99.90;;;;;;5061987;28;20385;-86
2023/10/26 02:18:02;;;;;;;22.15;16.13;;;10.80;99.90;;;;;;5052212;28;20072;-84
2023/10/26 02:20:27;;;;;;;20.15;16.05;;;10.80;99.90;;;;;;5059021;28;20128;-85
2023/10/26 02:22:53;;;;;;;18.02;15.65;;;10.70;99.90;;;;;;5062409;28;20635;-84
2023/10/26 02:25:20;;;;;;;20.40;16.92;;;10.70;99.90;;;;;;5056667;28;20020;-85
2023/10/26 02:27:45;;;;;;;16.50;14.75;;;10.70;99.90;;;;;;5062584;28;20039;-84
2023/10/26 02:30:12;;;;;;;18.65;15.50;;;10.70;99.90;;;;;;5063198;28;20049;-86
2023/10/26 02:32:38;;;;;;;18.85;16.73;;;10.70;99.90;;;;;;5054881;28;20032;-86
2023/10/26 02:35:04;;;;;;;19.00;16.65;;;10.70;99.90;;;;;;5065362;28;20052;-86
2023/10/26 02:37:29;;;;;;;18.70;16.60;;;10.70;99.90;;;;;;5063634;28;20053;-85
2023/10/26 02:39:55;;;;;;;18.02;15.45;;;10.70;99.90;;;;;;5060926;28;20115;-85
2023/10/26 02:42:20;;;;;;;16.50;14.88;;;10.70;99.90;;;;;;5056801;28;20049;-85
2023/10/26 02:44:46;;;;;;;18.90;15.73;;;10.60;99.90;;;;;;5054520;28;20027;-85
2023/10/26 02:47:11;;;;;;;16.73;14.90;;;10.60;99.90;;;;;;5066232;28;20025;-85
2023/10/26 02:49:37;;;;;;;21.13;15.40;;;10.50;99.90;;;;;;5066836;28;20025;-86
2023/10/26 02:52:02;;;;;;;21.42;16.08;;;10.50;99.90;;;;;;5052588;28;20144;-85
2023/10/26 02:54:28;;;;;;;19.83;15.52;;;10.50;99.90;;;;;;5056694;28;20063;-84
2023/10/26 02:56:54;;;;;;;18.65;14.68;;;10.80;99.90;;;;;;5061194;28;20020;-85
2023/10/26 02:59:20;;;;;;;21.52;15.45;;;10.50;99.90;;;;;;5059928;28;20020;-84
2023/10/26 03:01:46;;;;;;;17.85;15.90;;;10.50;99.90;;;;;;5061177;28;20030;-85
2023/10/26 03:04:11;;;;;;;16.23;14.63;;;10.50;99.90;;;;;;5058764;28;20087;-85
2023/10/26 03:06:40;;;;;;;17.00;15.23;;;10.50;99.90;;;;;;5054315;28;20388;-85
2023/10/26 03:09:08;;;;;;;23.08;16.52;;;10.50;99.90;;;;;;5063959;28;20054;-85
2023/10/26 03:11:35;;;;;;;18.35;16.38;;;10.50;99.90;;;;;;5067399;28;20036;-85
2023/10/26 03:14:00;;;;;;;16.25;14.52;;;10.50;99.90;;;;;;5073910;28;20047;-85
2023/10/26 03:16:26;;;;;;;22.35;16.83;;;10.50;99.90;;;;;;5063811;28;20373;-85
2023/10/26 03:18:52;;;;;;;17.73;15.80;;;10.50;99.90;;;;;;5062880;28;20094;-85
2023/10/26 03:21:20;;;;;;;17.58;15.55;;;10.50;99.90;;;;;;5066763;28;20081;-85
2023/10/26 03:23:54;;;;;;;18.02;15.13;;;10.90;99.90;;;;;;5072838;28;20029;-85
2023/10/26 03:26:21;;;;;;;16.92;14.88;;;10.50;99.90;;;;;;5069020;28;20032;-85
2023/10/26 03:28:49;;;;;;;20.33;14.65;;;10.40;99.90;;;;;;5068394;28;20686;-85
2023/10/26 03:31:15;;;;;;;18.08;15.30;;;10.40;99.90;;;;;;5056868;28;20039;-85
2023/10/26 03:33:41;;;;;;;19.70;16.88;;;10.40;99.90;;;;;;5052966;28;20017;-86
2023/10/26 03:36:18;;;;;;;17.42;15.23;;;10.40;99.90;;;;;;5060989;28;20025;-86
2023/10/26 03:38:45;;;;;;;17.45;15.10;;;10.50;99.90;;;;;;5051967;28;20025;-86
2023/10/26 03:41:11;;;;;;;15.25;12.73;;;10.40;99.90;;;;;;5056661;28;20021;-85
2023/10/26 03:43:36;;;;;;;28.02;12.38;;;10.30;99.90;;;;;;5056681;28;20036;-85
2023/10/26 03:46:02;;;;;;;12.45;11.32;;;10.30;99.90;;;;;;5057532;28;20017;-85
2023/10/26 03:48:28;;;;;;;10.93;9.93;;;10.30;99.90;;;;;;5052244;28;20025;-86
2023/10/26 03:50:53;;;;;;;10.70;9.55;;;10.30;99.90;;;;;;5054777;28;20044;-86
2023/10/26 03:53:19;;;;;;;11.75;10.65;;;10.30;99.90;;;;;;5072581;28;20029;-85
2023/10/26 03:55:45;;;;;;;13.98;9.77;;;10.20;99.90;;;;;;5068426;28;20777;-86
2023/10/26 03:58:15;;;;;;;10.13;9.18;;;10.20;99.90;;;;;;5071353;28;20024;-84
2023/10/26 04:00:41;;;;;;;27.30;10.80;;;10.20;99.90;;;;;;5059123;28;20054;-86
2023/10/26 04:03:06;;;;;;;15.80;10.00;;;10.20;99.90;;;;;;5062256;28;20040;-85
2023/10/26 04:05:32;;;;;;;13.60;10.15;;;10.20;99.90;;;;;;5064891;28;20016;-86
2023/10/26 04:08:00;;;;;;;31.73;11.75;;;10.10;99.90;;;;;;5071156;28;20111;-85
2023/10/26 04:10:26;;;;;;;20.25;11.15;;;10.10;99.90;;;;;;5058187;28;20067;-86
2023/10/26 04:12:51;;;;;;;12.77;11.18;;;10.10;99.90;;;;;;5059605;28;20434;-86
2023/10/26 04:15:17;;;;;;;16.23;10.40;;;10.10;99.90;;;;;;5059801;28;20029;-86
2023/10/26 04:17:43;;;;;;;23.27;11.00;;;10.20;99.90;;;;;;5051867;28;20036;-86
2023/10/26 04:20:09;;;;;;;26.92;10.23;;;10.20;99.90;;;;;;5052761;28;20366;-87
2023/10/26 04:22:34;;;;;;;23.55;11.48;;;10.20;99.90;;;;;;5053536;28;20039;-87
2023/10/26 04:25:00;;;;;;;11.43;10.23;;;10.20;99.90;;;;;;5068427;28;20115;-86
2023/10/26 04:27:25;;;;;;;16.20;10.23;;;10.20;99.90;;;;;;5054150;28;20192;-87
2023/10/26 04:29:51;;;;;;;18.13;11.40;;;10.30;99.90;;;;;;5071261;28;20132;-86
2023/10/26 04:32:17;;;;;;;15.32;12.00;;;10.20;99.90;;;;;;5070533;28;20040;-85
2023/10/26 04:34:43;;;;;;;17.60;10.85;;;10.30;99.90;;;;;;5051333;28;20025;-86
2023/10/26 04:37:10;;;;;;;56.95;11.88;;;10.20;99.90;;;;;;5052278;28;20036;-85
2023/10/26 04:39:36;;;;;;;36.47;12.15;;;10.20;99.90;;;;;;5050889;28;20036;-86
2023/10/26 04:42:03;;;;;;;24.00;12.90;;;10.20;99.90;;;;;;5056248;28;20021;-87
2023/10/26 04:44:29;;;;;;;22.27;13.27;;;10.10;99.90;;;;;;5055748;28;20487;-86
2023/10/26 04:46:55;;;;;;;27.85;14.23;;;10.10;99.90;;;;;;5058817;28;20033;-86
2023/10/26 04:49:21;;;;;;;26.75;13.55;;;10.10;99.90;;;;;;5069797;28;20025;-86
2023/10/26 04:51:46;;;;;;;24.25;13.80;;;10.10;99.90;;;;;;5061638;28;20032;-86
2023/10/26 04:54:12;;;;;;;16.45;14.60;;;10.10;99.90;;;;;;5054651;28;20443;-86
2023/10/26 04:56:37;;;;;;;21.85;13.85;;;10.10;99.90;;;;;;5055804;28;20504;-86
2023/10/26 04:59:03;;;;;;;22.08;15.98;;;10.20;99.90;;;;;;5057960;28;20485;-87
2023/10/26 05:01:28;;;;;;;34.40;15.70;;;10.20;99.90;;;;;;5063495;28;20055;-87
2023/10/26 05:03:54;;;;;;;29.77;15.15;;;10.20;99.90;;;;;;5061857;28;20036;-87
2023/10/26 05:06:20;;;;;;;20.80;15.82;;;10.30;99.90;;;;;;5063392;28;20030;-87
2023/10/26 05:08:46;;;;;;;23.42;15.27;;;10.30;99.90;;;;;;5070255;28;20043;-87
2023/10/26 05:11:12;;;;;;;33.05;17.98;;;10.30;99.90;;;;;;5065353;28;20032;-87
2023/10/26 05:13:38;;;;;;;35.80;18.23;;;10.30;99.90;;;;;;5060257;28;20074;-86
2023/10/26 05:16:04;;;;;;;28.10;17.13;;;10.30;99.90;;;;;;5061415;28;20028;-85
2023/10/26 05:18:29;;;;;;;30.52;18.45;;;10.30;99.90;;;;;;5058662;28;20111;-85
2023/10/26 05:20:55;;;;;;;70.15;19.23;;;10.30;99.90;;;;;;5061329;28;20027;-85
2023/10/26 05:23:20;;;;;;;36.88;19.10;;;10.30;99.90;;;;;;5060873;28;20456;-84
2023/10/26 05:25:47;;;;;;;47.55;19.88;;;10.30;99.90;;;;;;5059065;28;20025;-83
2023/10/26 05:28:13;;;;;;;52.25;19.38;;;10.20;99.90;;;;;;5055195;28;20040;-84
2023/10/26 05:30:38;;;;;;;39.85;20.98;;;10.20;99.90;;;;;;5061829;28;20044;-87
2023/10/26 05:33:04;;;;;;;34.88;21.90;;;10.20;99.90;;;;;;5061711;28;20043;-86
2023/10/26 05:35:30;;;;;;;35.75;21.63;;;10.20;99.90;;;;;;5059312;28;20025;-85
2023/10/26 05:37:55;;;;;;;30.40;21.45;;;10.30;99.90;;;;;;5064960;28;20157;-84
2023/10/26 05:40:21;;;;;;;37.20;21.70;;;10.30;99.90;;;;;;5064338;28;20016;-84
2023/10/26 05:42:47;;;;;;;47.17;21.75;;;10.30;99.90;;;;;;5065605;28;20031;-86
2023/10/26 05:45:12;;;;;;;33.30;20.75;;;10.40;99.90;;;;;;5068594;28;20028;-86
2023/10/26 05:47:38;;;;;;;36.83;21.77;;;10.40;99.90;;;;;;5063049;28;20029;-86
2023/10/26 05:50:05;;;;;;;42.40;20.58;;;10.40;99.90;;;;;;5059759;28;20025;-86
2023/10/26 05:52:30;;;;;;;39.55;20.35;;;10.50;99.90;;;;;;5065019;28;20553;-86
2023/10/26 05:54:56;;;;;;;32.63;19.75;;;10.50;99.90;;;;;;5068317;28;20033;-86
2023/10/26 05:57:22;;;;;;;40.00;20.70;;;10.50;99.90;;;;;;5065238;28;20029;-87
2023/10/26 05:59:47;;;;;;;59.05;20.50;;;10.50;99.90;;;;;;5058832;28;20021;-86
2023/10/26 06:02:13;;;;;;;51.15;21.30;;;10.50;99.90;;;;;;5060924;28;20028;-87
2023/10/26 06:04:38;;;;;;;36.05;22.02;;;10.50;99.90;;;;;;5055361;28;20097;-84
2023/10/26 06:07:04;;;;;;;33.38;20.45;;;10.50;99.90;;;;;;5054552;28;20043;-87
2023/10/26 06:09:30;;;;;;;30.70;21.13;;;10.50;99.90;;;;;;5063083;28;20045;-86
2023/10/26 06:11:56;;;;;;;32.38;21.55;;;10.50;99.90;;;;;;5069986;28;20037;-86
2023/10/26 06:14:21;;;;;;;37.38;20.70;;;10.50;99.90;;;;;;5074407;28;20031;-86
2023/10/26 06:16:47;;;;;;;41.25;21.63;;;10.50;99.90;;;;;;5069415;28;20055;-84
2023/10/26 06:19:13;;;;;;;35.83;22.38;;;10.50;99.90;;;;;;5064017;28;20108;-84
2023/10/26 06:21:39;;;;;;;38.92;21.38;;;10.50;99.90;;;;;;5055212;28;20084;-84
2023/10/26 06:24:06;;;;;;;37.13;21.95;;;10.50;99.90;;;;;;5064316;28;20064;-84
2023/10/26 06:26:31;;;;;;;43.60;22.80;;;10.50;99.90;;;;;;5073812;28;20100;-86
2023/10/26 06:28:57;;;;;;;38.85;21.00;;;10.50;99.90;;;;;;5071520;28;20087;-85
2023/10/26 06:31:22;;;;;;;36.80;21.27;;;10.50;99.90;;;;;;5062377;28;20041;-86
2023/10/26 06:33:48;;;;;;;38.45;22.58;;;10.50;99.90;;;;;;5054245;28;20024;-86
2023/10/26 06:36:13;;;;;;;32.95;20.20;;;10.50;99.90;;;;;;5065423;28;20060;-87
2023/10/26 06:38:40;;;;;;;28.45;20.70;;;10.50;99.90;;;;;;5063835;28;20032;-86
2023/10/26 06:41:06;;;;;;;31.23;20.08;;;10.50;99.90;;;;;;5081016;28;20055;-86
2023/10/26 06:43:32;;;;;;;37.42;20.20;;;10.50;99.90;;;;;;5065632;28;20028;-86
2023/10/26 06:46:00;;;;;;;28.85;19.40;;;10.80;99.90;;;;;;5058296;28;20021;-86
2023/10/26 06:48:25;;;;;;;30.15;19.85;;;10.50;99.90;;;;;;5059670;28;20056;-85
2023/10/26 06:51:00;;;;;;;50.47;20.92;;;10.50;99.90;;;;;;5060499;28;20454;-84
2023/10/26 06:53:26;;;;;;;31.25;20.50;;;10.50;99.90;;;;;;5072374;28;20029;-85
2023/10/26 06:55:52;;;;;;;41.45;20.48;;;10.90;99.90;;;;;;5067450;28;20112;-85
2023/10/26 06:58:18;;;;;;;32.67;21.58;;;10.60;99.90;;;;;;5056748;28;20104;-84
2023/10/26 07:00:44;;;;;;;32.55;20.73;;;10.60;99.90;;;;;;5059987;28;20025;-84
2023/10/26 07:03:10;;;;;;;39.25;22.35;;;10.60;99.90;;;;;;5057440;28;20025;-85
2023/10/26 07:05:35;;;;;;;45.03;20.15;;;10.60;99.90;;;;;;5063375;28;20119;-91
2023/10/26 07:08:01;;;;;;;32.17;19.42;;;10.60;99.90;;;;;;5071200;28;20480;-84
2023/10/26 07:10:27;;;;;;;34.97;20.90;;;10.60;99.90;;;;;;5070762;28;20054;-85
2023/10/26 07:12:52;;;;;;;40.97;21.45;;;10.60;99.90;;;;;;5072383;28;20031;-84
2023/10/26 07:15:18;;;;;;;47.97;21.00;;;10.60;99.90;;;;;;5070371;28;20025;-85
2023/10/26 07:17:43;;;;;;;39.28;20.20;;;10.60;99.90;;;;;;5066436;28;20902;-84
2023/10/26 07:20:12;;;;;;;37.75;20.10;;;10.60;99.90;;;;;;5072096;28;20023;-84
2023/10/26 07:22:39;;;;;;;44.30;20.77;;;10.60;99.90;;;;;;5070074;28;20063;-84
2023/10/26 07:25:05;;;;;;;35.85;20.10;;;10.50;99.90;;;;;;5070921;28;20040;-83
2023/10/26 07:27:31;;;;;;;58.53;20.10;;;10.50;99.90;;;;;;5063732;28;20025;-85
2023/10/26 07:29:58;;;;;;;36.97;21.20;;;10.50;99.90;;;;;;5056546;28;20118;-85
2023/10/26 07:32:24;;;;;;;42.45;20.50;;;10.50;99.90;;;;;;5063143;28;20438;-84
2023/10/26 07:34:51;;;;;;;37.92;19.52;;;10.50;99.90;;;;;;5069565;28;20028;-84
2023/10/26 07:37:17;;;;;;;31.65;19.88;;;10.50;99.90;;;;;;5072632;28;20029;-83
2023/10/26 07:39:42;;;;;;;33.13;17.45;;;10.50;99.90;;;;;;5070862;28;20742;-84
2023/10/26 07:42:08;;;;;;;32.15;18.10;;;10.50;99.90;;;;;;5069559;28;20020;-84
2023/10/26 07:44:34;;;;;;;24.63;16.52;;;10.50;99.90;;;;;;5065942;28;20024;-86
2023/10/26 07:47:00;;;;;;;35.03;17.42;;;10.50;99.90;;;;;;5055026;28;20495;-84
2023/10/26 07:49:25;;;;;;;34.10;19.17;;;10.40;99.90;;;;;;5071025;28;20024;-85
2023/10/26 07:51:51;;;;;;;31.25;19.40;;;10.50;99.90;;;;;;5055890;28;20045;-86
2023/10/26 07:54:17;;;;;;;33.05;18.70;;;10.50;99.90;;;;;;5061231;28;20021;-87
2023/10/26 07:56:43;;;;;;;29.45;18.20;;;10.50;99.90;;;;;;5063582;28;20032;-85
2023/10/26 07:59:09;;;;;;;34.25;20.15;;;10.50;99.90;;;;;;5070766;28;20024;-85
2023/10/26 08:01:34;;;;;;;36.90;21.30;;;10.50;99.90;;;;;;5070702;28;20082;-85
2023/10/26 08:04:00;;;;;;;33.67;18.90;;;10.60;99.90;;;;;;5060172;28;20477;-87
2023/10/26 08:06:25;;;;;;;29.35;19.17;;;10.60;99.90;;;;;;5055705;28;20575;-86
2023/10/26 08:08:54;;;;;;;31.98;19.42;;;10.60;99.90;;;;;;5058570;28;20104;-84
2023/10/26 08:11:19;;;;;;;34.50;20.08;;;10.60;99.90;;;;;;5051903;28;20037;-83
2023/10/26 08:13:45;;;;;;;35.05;20.30;;;10.60;99.90;;;;;;5065588;28;20307;-84
2023/10/26 08:16:11;;;;;;;33.90;19.35;;;10.60;99.90;;;;;;5068877;28;20025;-83
2023/10/26 08:18:37;;;;;;;41.33;23.35;;;11.00;99.90;;;;;;5056551;28;20028;-83
2023/10/26 08:21:05;;;;;;;40.72;21.98;;;10.60;99.90;;;;;;5065572;28;20494;-85
2023/10/26 08:23:32;;;;;;;41.25;22.83;;;10.60;99.90;;;;;;5068257;28;20020;-92
2023/10/26 08:26:08;;;;;;;41.55;23.27;;;10.60;99.90;;;;;;5070253;28;20028;-84
2023/10/26 08:28:34;;;;;;;41.88;21.92;;;10.60;99.90;;;;;;5061721;28;20592;-86
2023/10/26 08:31:01;;;;;;;45.03;21.98;;;10.60;99.90;;;;;;5058395;28;20037;-83
2023/10/26 08:33:30;;;;;;;42.65;21.95;;;10.60;99.90;;;;;;5064708;28;20089;-85
2023/10/26 08:35:56;;;;;;;40.78;21.65;;;10.60;99.90;;;;;;5063894;28;20028;-84
2023/10/26 08:38:22;;;;;;;42.97;23.27;;;10.60;99.90;;;;;;5068807;28;20111;-83
2023/10/26 08:40:55;;;;;;;44.58;22.90;;;11.20;99.90;;;;;;5058105;28;20033;-84
2023/10/26 08:43:21;;;;;;;49.63;25.48;;;10.70;99.90;;;;;;5052512;28;20071;-84
2023/10/26 08:45:48;;;;;;;44.90;24.55;;;10.70;99.90;;;;;;5051654;28;20029;-84
2023/10/26 08:48:16;;;;;;;49.47;26.60;;;10.70;99.90;;;;;;5059474;28;20376;-84
2023/10/26 08:50:42;;;;;;;49.75;27.70;;;10.70;99.90;;;;;;5058883;28;20040;-84
2023/10/26 08:53:08;;;;;;;46.75;25.67;;;10.70;99.90;;;;;;5048157;28;20508;-84
2023/10/26 08:55:35;;;;;;;50.08;28.00;;;10.70;99.90;;;;;;5049820;28;20051;-84
2023/10/26 08:58:02;;;;;;;44.85;25.48;;;10.80;99.90;;;;;;5068478;28;20541;-84
2023/10/26 09:00:32;;;;;;;48.78;27.00;;;10.80;99.90;;;;;;5068128;28;20025;-85
2023/10/26 09:02:58;;;;;;;48.30;26.77;;;10.80;99.90;;;;;;5058793;28;20063;-84
2023/10/26 09:05:24;;;;;;;43.70;25.42;;;10.80;99.90;;;;;;5050625;28;20505;-83
2023/10/26 09:07:51;;;;;;;41.40;23.30;;;10.90;99.90;;;;;;5064980;28;20476;-83
2023/10/26 09:10:27;;;;;;;43.30;23.52;;;10.90;99.90;;;;;;5076049;28;20050;-84
2023/10/26 09:13:00;;;;;;;46.42;24.45;;;10.90;99.90;;;;;;5057112;28;20048;-84
2023/10/26 09:15:28;;;;;;;41.50;24.13;;;10.90;99.90;;;;;;5062391;28;20029;-83
2023/10/26 09:17:57;;;;;;;38.25;23.05;;;10.90;99.90;;;;;;5075393;28;20025;-84
2023/10/26 09:20:24;;;;;;;39.42;24.40;;;11.00;99.90;;;;;;5075172;28;20029;-84
2023/10/26 09:22:50;;;;;;;40.38;23.27;;;11.00;99.90;;;;;;5069383;28;20115;-84
2023/10/26 09:25:16;;;;;;;40.20;24.25;;;11.00;99.90;;;;;;5067795;28;20021;-83
2023/10/26 09:27:43;;;;;;;36.40;23.17;;;11.00;99.90;;;;;;5056552;28;20060;-84
2023/10/26 09:30:27;;;;;;;38.63;22.98;;;11.00;99.90;;;;;;5068786;28;20508;-84
2023/10/26 09:32:52;;;;;;;39.00;23.67;;;11.00;99.90;;;;;;5057333;28;20060;-83
2023/10/26 09:35:29;;;;;;;38.75;23.90;;;11.10;99.90;;;;;;5054746;28;20024;-86
2023/10/26 09:37:55;;;;;;;40.47;23.70;;;11.10;99.90;;;;;;5055781;28;20119;-83
2023/10/26 09:40:25;;;;;;;37.97;23.52;;;11.10;99.90;;;;;;5055744;28;20052;-83
2023/10/26 09:42:51;;;;;;;37.70;23.33;;;11.10;99.90;;;;;;5068566;28;20139;-85
2023/10/26 09:45:19;;;;;;;33.75;22.15;;;11.20;99.90;;;;;;5070898;28;20376;-81
2023/10/26 09:47:45;;;;;;;36.05;23.00;;;11.20;99.90;;;;;;5067094;28;20028;-86
2023/10/26 09:50:11;;;;;;;36.45;21.52;;;11.20;99.90;;;;;;5059000;28;20035;-90
2023/10/26 09:52:39;;;;;;;32.80;21.98;;;11.20;99.90;;;;;;5056949;28;20117;-87
2023/10/26 09:55:07;;;;;;;38.25;22.70;;;11.20;99.90;;;;;;5062183;28;20051;-87
2023/10/26 09:57:35;;;;;;;32.38;20.55;;;11.30;99.90;;;;;;5071678;28;20033;-85
2023/10/26 10:00:10;;;;;;;32.40;20.90;;;12.40;99.90;;;;;;5069085;28;20032;-89
2023/10/26 10:02:35;;;;;;;32.67;20.67;;;11.30;99.90;;;;;;5071771;28;20089;-84
2023/10/26 10:05:01;;;;;;;36.22;20.58;;;11.30;99.90;;;;;;5069055;28;20119;-85
2023/10/26 10:07:45;;;;;;;31.50;21.27;;;11.40;99.90;;;;;;5058473;28;20445;-84
2023/10/26 10:10:12;;;;;;;31.92;21.35;;;11.40;99.90;;;;;;5056287;28;20029;-85
2023/10/26 10:12:39;;;;;;;32.72;21.27;;;11.40;99.90;;;;;;5060782;28;20036;-84
2023/10/26 10:15:15;;;;;;;33.95;20.77;;;11.50;99.90;;;;;;5064036;28;20383;-85
2023/10/26 10:17:44;;;;;;;30.05;19.40;;;11.50;99.90;;;;;;5070018;28;20053;-84
2023/10/26 10:20:18;;;;;;;32.58;21.23;;;11.50;99.90;;;;;;5065625;28;20021;-85
2023/10/26 10:22:52;;;;;;;31.23;20.65;;;11.50;99.90;;;;;;5055475;28;20373;-87
2023/10/26 10:25:18;;;;;;;33.03;20.25;;;11.70;99.90;;;;;;5063199;28;20025;-84
2023/10/26 10:27:49;;;;;;;27.58;18.48;;;11.50;99.90;;;;;;5057864;28;20100;-85
2023/10/26 10:30:19;;;;;;;27.55;19.23;;;11.50;99.90;;;;;;5068139;28;20045;-87
2023/10/26 10:32:49;;;;;;;28.95;19.13;;;11.90;99.90;;;;;;5073042;28;20033;-90
2023/10/26 10:35:20;;;;;;;27.58;18.52;;;11.50;99.90;;;;;;5069726;28;20025;-87
2023/10/26 10:38:21;;;;;;;27.23;18.25;;;11.60;99.90;;;;;;5067967;28;20071;-87
2023/10/26 10:40:58;;;;;;;29.48;19.00;;;11.60;99.90;;;;;;5028231;28;20029;-86
2023/10/26 10:43:45;;;;;;;31.75;18.52;;;11.60;99.90;;;;;;5052488;28;20033;-86
2023/10/26 10:46:26;;;;;;;28.52;18.33;;;11.70;99.90;;;;;;5069424;28;20020;-86
2023/10/26 10:49:03;;;;;;;28.35;18.40;;;11.70;99.90;;;;;;5072767;28;20055;-89
2023/10/26 10:51:28;;;;;;;26.05;16.95;;;11.80;99.90;;;;;;5068119;28;20040;-87
2023/10/26 10:53:55;;;;;;;20.65;15.63;;;11.80;99.90;;;;;;5064993;28;20031;-83
2023/10/26 10:56:23;;;;;;;27.35;17.63;;;11.80;99.90;;;;;;5069919;28;20029;-83
2023/10/26 10:58:50;;;;;;;28.40;18.55;;;11.80;99.90;;;;;;5061644;28;20053;-83
2023/10/26 11:01:20;;;;;;;29.38;19.30;;;11.70;99.90;;;;;;5053801;28;20485;-83
2023/10/26 11:03:47;;;;;;;29.35;20.10;;;11.70;99.90;;;;;;5056679;28;20045;-85
2023/10/26 11:06:19;;;;;;;32.95;20.02;;;11.60;99.90;;;;;;5053229;28;20130;-85
2023/10/26 11:08:45;;;;;;;25.15;17.58;;;11.60;99.90;;;;;;5068398;28;20024;-84
2023/10/26 11:11:27;;;;;;;27.48;18.85;;;11.60;99.90;;;;;;5070764;28;20476;-83
2023/10/26 11:14:09;;;;;;;28.50;19.13;;;11.60;99.90;;;;;;5065528;28;20032;-83
2023/10/26 11:16:36;;;;;;;30.67;19.25;;;11.50;99.90;;;;;;5071380;28;20021;-83
2023/10/26 11:19:04;;;;;;;28.45;18.50;;;11.50;99.90;;;;;;5053218;28;20550;-83
2023/10/26 11:21:30;;;;;;;25.08;16.98;;;11.40;99.90;;;;;;5052469;28;20112;-84
2023/10/26 11:23:56;;;;;;;23.05;16.67;;;11.40;99.90;;;;;;5053662;28;20107;-84
2023/10/26 11:26:21;;;;;;;29.10;18.30;;;11.40;99.90;;;;;;5058048;28;20020;-82
2023/10/26 11:28:47;;;;;;;27.05;18.33;;;11.30;99.90;;;;;;5072635;28;20055;-84
2023/10/26 11:31:12;;;;;;;31.67;19.67;;;11.30;99.90;;;;;;5057988;28;20037;-84
2023/10/26 11:33:44;;;;;;;29.00;19.52;;;11.90;99.90;;;;;;5064057;28;20037;-84
2023/10/26 11:36:12;;;;;;;27.88;18.48;;;11.30;99.90;;;;;;5066204;28;20032;-84
2023/10/26 11:38:48;;;;;;;31.05;19.23;;;11.30;99.90;;;;;;5071863;28;20020;-85
2023/10/26 11:41:25;;;;;;;28.30;19.20;;;11.40;99.90;;;;;;5064426;28;20515;-88
2023/10/26 11:43:51;;;;;;;27.08;18.88;;;11.40;99.90;;;;;;5071005;28;20094;-86
2023/10/26 11:46:27;;;;;;;30.95;19.98;;;11.40;99.90;;;;;;5063148;28;20036;-86
2023/10/26 11:48:53;;;;;;;28.27;18.33;;;11.40;99.90;;;;;;5063798;28;20123;-86
2023/10/26 11:51:19;;;;;;;29.98;17.83;;;11.40;99.90;;;;;;5072577;28;20493;-86
2023/10/26 11:53:44;;;;;;;25.45;17.23;;;11.40;99.90;;;;;;5067524;28;20025;-88
2023/10/26 11:56:10;;;;;;;29.75;17.42;;;11.50;99.90;;;;;;5056614;28;20059;-84
2023/10/26 11:58:35;;;;;;;21.80;15.93;;;11.50;99.90;;;;;;5055752;28;20024;-91
2023/10/26 12:01:01;;;;;;;24.02;15.93;;;11.50;99.90;;;;;;5076301;28;20362;-91
2023/10/26 12:03:28;;;;;;;24.48;14.93;;;11.50;99.90;;;;;;5064097;28;20029;-90
2023/10/26 12:05:53;;;;;;;18.92;15.07;;;11.60;99.90;;;;;;5074509;28;20100;-92
2023/10/26 12:08:19;;;;;;;15.50;12.82;;;11.60;99.90;;;;;;5079146;28;20056;-87
2023/10/26 12:10:46;;;;;;;20.67;14.43;;;11.60;99.90;;;;;;5077846;28;20036;-92
2023/10/26 12:13:38;;;;;;;20.92;15.50;;;11.60;99.90;;;;;;5082022;28;20025;-92
2023/10/26 12:16:04;;;;;;;21.77;14.13;;;11.60;99.90;;;;;;5063541;28;20027;-87
2023/10/26 12:18:32;;;;;;;22.27;15.30;;;11.70;99.90;;;;;;5062230;28;20033;-86
2023/10/26 12:20:59;;;;;;;20.17;15.00;;;11.70;99.90;;;;;;5073133;28;20025;-92
2023/10/26 12:23:24;;;;;;;21.92;15.52;;;11.70;99.90;;;;;;5086446;28;20009;-89
2023/10/26 12:25:50;;;;;;;21.13;16.63;;;12.30;99.90;;;;;;5083771;28;20384;-91
2023/10/26 12:28:16;;;;;;;23.85;16.27;;;11.80;99.90;;;;;;5066291;28;20024;-94